createdAt,value
2019-01-20T00:00:49.872Z,-1.00
2019-01-20T00:03:16.134Z,-0.90
2019-01-20T00:05:42.239Z,-0.80
2019-01-20T00:08:08.272Z,-0.90
2019-01-20T00:10:42.311Z,-0.80
2019-01-20T00:13:08.761Z,-0.80
2019-01-20T00:15:37.463Z,-0.80
2019-01-20T00:18:09.576Z,-0.80
2019-01-20T00:20:36.770Z,-0.90
2019-01-20T00:23:02.971Z,-1.00
2019-01-20T00:25:31.223Z,-1.10
2019-01-20T00:27:57.407Z,-1.10
2019-01-20T00:30:23.676Z,-1.20
2019-01-20T00:32:49.744Z,-1.20
2019-01-20T00:35:29.040Z,-1.20
2019-01-20T00:38:02.075Z,-1.20
2019-01-20T00:40:29.198Z,-1.30
2019-01-20T00:42:55.219Z,-1.20
2019-01-20T00:45:22.149Z,-1.20
2019-01-20T00:47:48.189Z,-1.20
2019-01-20T00:50:15.542Z,-1.30
2019-01-20T00:52:41.876Z,-1.30
2019-01-20T00:55:11.256Z,-1.30
2019-01-20T00:57:38.301Z,-1.20
2019-01-20T01:00:13.966Z,-1.30
2019-01-20T01:02:40.532Z,-1.30
2019-01-20T01:05:06.727Z,-1.40
2019-01-20T01:07:32.793Z,-1.40
2019-01-20T01:09:58.856Z,-1.30
2019-01-20T01:12:25.932Z,-1.30
2019-01-20T01:14:51.957Z,-1.30
2019-01-20T01:17:18.098Z,-1.30
2019-01-20T01:19:50.179Z,-1.40
2019-01-20T01:22:16.354Z,-1.40
2019-01-20T01:24:42.495Z,-1.30
2019-01-20T01:27:09.645Z,-1.20
2019-01-20T01:29:35.783Z,-1.10
2019-01-20T01:32:03.053Z,-1.10
2019-01-20T01:34:30.223Z,-1.20
2019-01-20T01:36:57.475Z,-1.20
2019-01-20T01:39:24.634Z,-1.20
2019-01-20T01:41:50.828Z,-1.20
2019-01-20T01:44:16.945Z,-1.10
2019-01-20T01:46:44.047Z,-1.10
2019-01-20T01:49:11.179Z,-1.20
2019-01-20T01:51:37.284Z,-1.30
2019-01-20T01:54:05.418Z,-1.20
2019-01-20T01:56:31.552Z,-1.20
2019-01-20T01:58:58.630Z,-1.10
2019-01-20T02:01:25.779Z,-1.30
2019-01-20T02:03:52.897Z,-1.40
2019-01-20T02:06:19.063Z,-1.40
2019-01-20T02:08:52.025Z,-1.40
2019-01-20T02:11:22.211Z,-1.40
2019-01-20T02:13:48.308Z,-1.50
2019-01-20T02:16:14.402Z,-1.50
2019-01-20T02:18:41.414Z,-1.50
2019-01-20T02:21:08.789Z,-1.40
2019-01-20T02:23:34.810Z,-1.40
2019-01-20T02:26:03.052Z,-1.40
2019-01-20T02:28:30.131Z,-1.50
2019-01-20T02:30:56.231Z,-1.60
2019-01-20T02:33:22.319Z,-1.50
2019-01-20T02:35:48.369Z,-1.60
2019-01-20T02:38:20.161Z,-1.60
2019-01-20T02:40:47.235Z,-1.50
2019-01-20T02:43:14.377Z,-1.50
2019-01-20T02:45:40.505Z,-1.50
2019-01-20T02:48:10.616Z,-1.50
2019-01-20T02:50:37.767Z,-1.50
2019-01-20T02:53:03.913Z,-1.50
2019-01-20T02:55:31.977Z,-1.60
2019-01-20T02:57:58.010Z,-1.70
2019-01-20T03:00:25.353Z,-1.70
2019-01-20T03:02:55.454Z,-1.70
2019-01-20T03:05:21.998Z,-1.60
2019-01-20T03:07:48.184Z,-1.60
2019-01-20T03:10:21.138Z,-1.60
2019-01-20T03:12:47.151Z,-1.40
2019-01-20T03:15:13.685Z,-1.40
2019-01-20T03:17:42.104Z,-1.40
2019-01-20T03:20:20.130Z,-1.60
2019-01-20T03:22:46.471Z,-1.60
2019-01-20T03:25:15.822Z,-1.60
2019-01-20T03:27:45.286Z,-1.50
2019-01-20T03:30:16.656Z,-1.50
2019-01-20T03:32:42.693Z,-1.60
2019-01-20T03:35:12.038Z,-1.60
2019-01-20T03:37:42.188Z,-1.60
2019-01-20T03:40:11.556Z,-1.50
2019-01-20T03:42:38.865Z,-1.60
2019-01-20T03:45:08.756Z,-1.70
2019-01-20T03:47:40.925Z,-1.70
2019-01-20T03:50:12.822Z,-1.80
2019-01-20T03:52:44.783Z,-1.80
2019-01-20T03:55:14.498Z,-1.70
2019-01-20T03:57:40.592Z,-1.80
2019-01-20T04:00:20.877Z,-1.80
2019-01-20T04:02:49.052Z,-1.70
2019-01-20T04:05:22.313Z,-1.80
2019-01-20T04:07:49.798Z,-1.80
2019-01-20T04:10:17.470Z,-1.90
2019-01-20T04:12:43.585Z,-1.90
2019-01-20T04:15:11.909Z,-1.90
2019-01-20T04:17:39.291Z,-1.90
2019-01-20T04:20:07.417Z,-2.00
2019-01-20T04:22:35.545Z,-2.00
2019-01-20T04:25:08.532Z,-2.00
2019-01-20T04:27:42.455Z,-2.10
2019-01-20T04:30:11.180Z,-2.00
2019-01-20T04:32:39.490Z,-2.00
2019-01-20T04:35:07.774Z,-2.00
2019-01-20T04:37:35.009Z,-1.90
2019-01-20T04:40:13.730Z,-1.80
2019-01-20T04:42:45.735Z,-1.90
2019-01-20T04:45:16.982Z,-1.90
2019-01-20T04:47:43.418Z,-2.00
2019-01-20T04:50:19.474Z,-2.00
2019-01-20T04:52:47.623Z,-2.00
2019-01-20T04:55:14.157Z,-2.10
2019-01-20T04:57:43.103Z,-1.90
2019-01-20T05:00:12.542Z,-2.00
2019-01-20T05:02:46.615Z,-2.10
2019-01-20T05:05:13.195Z,-2.10
2019-01-20T05:07:41.383Z,-2.20
2019-01-20T05:10:13.682Z,-2.20
2019-01-20T05:12:43.768Z,-2.30
2019-01-20T05:15:15.809Z,-2.20
2019-01-20T05:17:44.318Z,-2.10
2019-01-20T05:20:11.142Z,-2.10
2019-01-20T05:22:37.140Z,-2.10
2019-01-20T05:25:07.203Z,-2.10
2019-01-20T05:27:34.411Z,-2.20
2019-01-20T05:30:02.749Z,-2.20
2019-01-20T05:32:28.858Z,-2.20
2019-01-20T05:34:56.915Z,-2.20
2019-01-20T05:37:27.615Z,-2.20
2019-01-20T05:39:54.756Z,-2.30
2019-01-20T05:42:22.202Z,-2.40
2019-01-20T05:44:49.726Z,-2.40
2019-01-20T05:47:23.930Z,-2.40
2019-01-20T05:49:50.056Z,-2.40
2019-01-20T05:52:16.159Z,-2.40
2019-01-20T05:54:43.646Z,-2.40
2019-01-20T05:57:09.828Z,-2.40
2019-01-20T05:59:37.768Z,-2.50
2019-01-20T06:02:08.908Z,-2.50
2019-01-20T06:04:35.928Z,-2.50
2019-01-20T06:07:03.669Z,-2.50
2019-01-20T06:09:29.777Z,-2.50
2019-01-20T06:12:10.981Z,-2.50
2019-01-20T06:14:39.093Z,-2.50
2019-01-20T06:17:19.459Z,-2.60
2019-01-20T06:19:51.389Z,-2.50
2019-01-20T06:22:17.510Z,-2.50
2019-01-20T06:24:43.947Z,-2.50
2019-01-20T06:27:11.729Z,-2.50
2019-01-20T06:29:37.764Z,-2.60
2019-01-20T06:32:04.093Z,-2.60
2019-01-20T06:34:32.464Z,-2.60
2019-01-20T06:36:58.562Z,-2.70
2019-01-20T06:39:24.687Z,-2.60
2019-01-20T06:41:52.799Z,-2.60
2019-01-20T06:44:19.854Z,-2.60
2019-01-20T06:46:45.976Z,-2.60
2019-01-20T06:49:13.053Z,-2.60
2019-01-20T06:51:41.155Z,-2.50
2019-01-20T06:54:07.260Z,-2.40
2019-01-20T06:56:42.829Z,-2.50
2019-01-20T06:59:17.019Z,-2.60
2019-01-20T07:01:44.094Z,-2.70
2019-01-20T07:04:12.270Z,-2.60
2019-01-20T07:06:38.343Z,-2.60
2019-01-20T07:09:05.066Z,-2.60
2019-01-20T07:11:32.087Z,-2.60
2019-01-20T07:13:59.231Z,-2.70
2019-01-20T07:16:28.546Z,-2.70
2019-01-20T07:18:55.753Z,-2.70
2019-01-20T07:21:21.804Z,-2.70
2019-01-20T07:23:54.201Z,-2.70
2019-01-20T07:26:20.311Z,-2.70
2019-01-20T07:28:54.334Z,-2.70
2019-01-20T07:31:20.437Z,-2.70
2019-01-20T07:33:46.480Z,-2.70
2019-01-20T07:36:16.556Z,-2.80
2019-01-20T07:38:44.870Z,-2.70
2019-01-20T07:41:10.900Z,-2.70
2019-01-20T07:43:38.005Z,-2.70
2019-01-20T07:46:04.186Z,-2.70
2019-01-20T07:48:30.223Z,-2.70
2019-01-20T07:50:59.511Z,-2.70
2019-01-20T07:53:26.621Z,-2.60
2019-01-20T07:55:53.810Z,-2.60
2019-01-20T07:58:20.012Z,-2.60
2019-01-20T08:00:47.100Z,-2.60
2019-01-20T08:03:14.317Z,-2.60
2019-01-20T08:06:02.360Z,-2.60
2019-01-20T08:08:31.869Z,-2.50
2019-01-20T08:11:01.613Z,-2.50
2019-01-20T08:13:35.871Z,-2.60
2019-01-20T08:16:03.260Z,-2.60
2019-01-20T08:18:29.455Z,-2.50
2019-01-20T08:21:11.051Z,-2.50
2019-01-20T08:23:37.870Z,-2.40
2019-01-20T08:26:04.979Z,-2.30
2019-01-20T08:28:38.618Z,-2.20
2019-01-20T08:31:07.757Z,-2.20
2019-01-20T08:33:44.787Z,-2.20
2019-01-20T08:36:17.963Z,-2.20
2019-01-20T08:38:49.969Z,-2.10
2019-01-20T08:41:18.237Z,-2.10
2019-01-20T08:43:44.295Z,-2.10
2019-01-20T08:46:14.240Z,-2.00
2019-01-20T08:48:40.611Z,-1.90
2019-01-20T08:51:14.544Z,-1.80
2019-01-20T08:53:45.198Z,-1.70
2019-01-20T08:56:17.263Z,-1.60
2019-01-20T08:58:43.309Z,-1.70
2019-01-20T09:01:12.041Z,-1.70
2019-01-20T09:03:38.102Z,-1.60
2019-01-20T09:06:04.275Z,-1.50
2019-01-20T09:08:31.755Z,-1.50
2019-01-20T09:11:08.888Z,-1.40
2019-01-20T09:13:44.011Z,-1.30
2019-01-20T09:16:11.095Z,-1.20
2019-01-20T09:18:38.291Z,-1.10
2019-01-20T09:21:05.173Z,-1.00
2019-01-20T09:23:37.254Z,-1.00
2019-01-20T09:26:04.661Z,-0.90
2019-01-20T09:28:30.723Z,-0.90
2019-01-20T09:30:57.541Z,-0.90
2019-01-20T09:33:25.021Z,-0.90
2019-01-20T09:35:57.710Z,-1.00
2019-01-20T09:38:23.793Z,-0.90
2019-01-20T09:40:51.013Z,-0.80
2019-01-20T09:43:19.127Z,-0.80
2019-01-20T09:45:48.862Z,-0.90
2019-01-20T09:48:15.970Z,-1.00
2019-01-20T09:50:42.118Z,-0.80
2019-01-20T09:53:08.437Z,-0.50
2019-01-20T09:55:34.605Z,-0.40
2019-01-20T09:58:04.147Z,-0.40
2019-01-20T10:00:34.210Z,-0.30
2019-01-20T10:03:02.545Z,-0.20
2019-01-20T10:05:39.005Z,-0.20
2019-01-20T10:08:05.107Z,-0.20
2019-01-20T10:10:32.392Z,-0.10
2019-01-20T10:12:58.465Z,0.00
2019-01-20T10:15:24.638Z,-0.10
2019-01-20T10:17:56.499Z,-0.10
2019-01-20T10:20:31.361Z,0.10
2019-01-20T10:22:59.241Z,-0.10
2019-01-20T10:25:25.349Z,-0.10
2019-01-20T10:27:52.641Z,-0.20
2019-01-20T10:30:34.642Z,-0.10
2019-01-20T10:33:00.768Z,0.00
2019-01-20T10:35:42.826Z,0.20
2019-01-20T10:38:10.268Z,0.30
2019-01-20T10:40:39.520Z,0.50
2019-01-20T10:43:13.165Z,0.60
2019-01-20T10:45:41.301Z,0.70
2019-01-20T10:48:07.895Z,0.80
2019-01-20T10:50:34.087Z,0.90
2019-01-20T10:53:03.512Z,1.00
2019-01-20T10:55:31.998Z,1.10
2019-01-20T10:57:58.190Z,1.10
2019-01-20T11:00:30.590Z,1.10
2019-01-20T11:02:56.902Z,1.20
2019-01-20T11:05:25.078Z,1.30
2019-01-20T11:07:52.171Z,1.40
2019-01-20T11:10:20.469Z,1.40
2019-01-20T11:12:49.834Z,1.40
2019-01-20T11:15:17.118Z,1.50
2019-01-20T11:17:50.390Z,1.60
2019-01-20T11:20:22.731Z,1.80
2019-01-20T11:22:52.256Z,1.90
2019-01-20T11:25:27.443Z,1.70
2019-01-20T11:27:59.506Z,1.70
2019-01-20T11:30:25.606Z,1.70
2019-01-20T11:32:53.035Z,1.80
2019-01-20T11:35:19.327Z,1.90
2019-01-20T11:37:46.616Z,1.90
2019-01-20T11:40:13.748Z,1.90
2019-01-20T11:42:41.736Z,2.00
2019-01-20T11:45:17.799Z,2.00
2019-01-20T11:47:44.070Z,2.00
2019-01-20T11:50:11.544Z,2.10
2019-01-20T11:52:40.807Z,2.20
2019-01-20T11:55:10.622Z,2.40
2019-01-20T11:57:36.878Z,2.50
2019-01-20T12:00:17.406Z,2.30
2019-01-20T12:02:56.953Z,2.20
2019-01-20T12:05:23.374Z,2.30
2019-01-20T12:07:49.493Z,2.50
2019-01-20T12:10:16.872Z,2.40
2019-01-20T12:12:44.951Z,2.20
2019-01-20T12:15:17.285Z,2.10
2019-01-20T12:17:53.591Z,1.90
2019-01-20T12:20:23.694Z,1.40
2019-01-20T12:23:06.906Z,0.90
2019-01-20T12:25:34.102Z,1.00
2019-01-20T12:28:03.811Z,1.10
2019-01-20T12:30:42.155Z,1.10
2019-01-20T12:33:10.882Z,1.10
2019-01-20T12:35:37.084Z,1.20
2019-01-20T12:38:04.461Z,1.10
2019-01-20T12:40:49.929Z,1.10
2019-01-20T12:43:41.964Z,1.20
2019-01-20T12:46:15.391Z,1.30
2019-01-20T12:48:51.869Z,1.40
2019-01-20T12:51:28.751Z,1.50
2019-01-20T12:53:56.256Z,1.80
2019-01-20T12:56:31.253Z,2.20
2019-01-20T12:59:27.408Z,2.50
2019-01-20T13:01:53.708Z,2.60
2019-01-20T13:04:29.250Z,2.90
2019-01-20T13:07:01.640Z,3.00
2019-01-20T13:09:40.221Z,2.90
2019-01-20T13:12:07.405Z,2.70
2019-01-20T13:14:44.040Z,2.60
2019-01-20T13:17:11.051Z,2.80
2019-01-20T13:19:38.312Z,3.10
2019-01-20T13:22:18.624Z,3.30
2019-01-20T13:24:51.075Z,3.70
2019-01-20T13:27:21.349Z,3.60
2019-01-20T13:30:07.572Z,3.60
2019-01-20T13:32:49.231Z,3.50
2019-01-20T13:35:29.202Z,3.40
2019-01-20T13:38:08.997Z,3.40
2019-01-20T13:41:04.373Z,3.50
2019-01-20T13:43:35.343Z,3.50
2019-01-20T13:46:03.069Z,3.90
2019-01-20T13:48:38.202Z,4.20
2019-01-20T13:51:12.551Z,4.40
2019-01-20T13:53:39.811Z,4.30
2019-01-20T13:56:09.940Z,4.30
2019-01-20T13:58:46.997Z,4.60
2019-01-20T14:01:13.025Z,4.80
2019-01-20T14:03:39.359Z,5.00
2019-01-20T14:06:06.630Z,4.90
2019-01-20T14:08:32.980Z,5.00
2019-01-20T14:11:03.506Z,5.10
2019-01-20T14:13:29.733Z,5.20
2019-01-20T14:15:59.857Z,5.40
2019-01-20T14:18:31.903Z,5.40
2019-01-20T14:20:58.084Z,5.50
2019-01-20T14:23:37.573Z,5.70
2019-01-20T14:26:05.613Z,5.40
2019-01-20T14:28:42.088Z,5.00
2019-01-20T14:31:09.272Z,4.80
2019-01-20T14:33:40.510Z,4.70
2019-01-20T14:36:26.782Z,4.60
2019-01-20T14:39:10.417Z,5.30
2019-01-20T14:41:38.552Z,5.50
2019-01-20T14:44:04.948Z,5.10
2019-01-20T14:46:43.151Z,5.00
2019-01-20T14:49:18.910Z,4.90
2019-01-20T14:51:55.191Z,4.60
2019-01-20T14:54:27.549Z,4.10
2019-01-20T14:56:59.914Z,3.80
2019-01-20T14:59:27.115Z,3.80
2019-01-20T15:01:53.361Z,3.90
2019-01-20T15:04:23.432Z,3.70
2019-01-20T15:06:50.840Z,3.60
2019-01-20T15:09:17.203Z,3.40
2019-01-20T15:11:43.531Z,3.30
2019-01-20T15:14:09.728Z,3.20
2019-01-20T15:16:48.923Z,3.20
2019-01-20T15:19:15.202Z,3.20
2019-01-20T15:21:52.076Z,3.10
2019-01-20T15:24:31.035Z,3.00
2019-01-20T15:26:56.615Z,2.90
2019-01-20T15:29:26.844Z,2.80
2019-01-20T15:31:54.204Z,2.80
2019-01-20T15:34:20.554Z,2.80
2019-01-20T15:36:50.162Z,2.90
2019-01-20T15:39:31.847Z,2.80
2019-01-20T15:42:02.491Z,2.80
2019-01-20T15:44:40.722Z,2.60
2019-01-20T15:47:10.999Z,2.50
2019-01-20T15:49:45.687Z,2.50
2019-01-20T15:52:19.999Z,2.30
2019-01-20T15:54:51.347Z,2.10
2019-01-20T15:57:23.850Z,1.80
2019-01-20T15:59:55.406Z,1.70
2019-01-20T16:02:30.840Z,1.60
2019-01-20T16:05:06.449Z,1.60
2019-01-20T16:07:39.417Z,1.50
2019-01-20T16:10:09.415Z,1.40
2019-01-20T16:12:46.163Z,1.40
2019-01-20T16:15:16.135Z,1.50
2019-01-20T16:17:52.394Z,1.50
2019-01-20T16:20:18.840Z,1.50
2019-01-20T16:22:50.075Z,1.60
2019-01-20T16:25:32.047Z,1.70
2019-01-20T16:27:59.442Z,1.70
2019-01-20T16:30:48.645Z,1.80
2019-01-20T16:33:16.910Z,1.60
2019-01-20T16:35:56.795Z,1.60
2019-01-20T16:38:23.041Z,1.60
2019-01-20T16:40:49.208Z,1.50
2019-01-20T16:43:20.315Z,1.50
2019-01-20T16:45:46.671Z,1.40
2019-01-20T16:48:22.541Z,1.20
2019-01-20T16:50:54.585Z,1.10
2019-01-20T16:53:24.145Z,1.10
2019-01-20T16:55:58.413Z,1.00
2019-01-20T16:58:34.822Z,1.00
2019-01-20T17:01:04.016Z,1.20
2019-01-20T17:03:32.077Z,1.20
2019-01-20T17:05:59.298Z,1.20
2019-01-20T17:08:35.378Z,1.20
2019-01-20T17:11:03.759Z,1.20
2019-01-20T17:13:33.857Z,1.20
2019-01-20T17:16:01.198Z,1.30
2019-01-20T17:18:32.975Z,1.20
2019-01-20T17:21:11.478Z,1.20
2019-01-20T17:23:38.542Z,1.20
2019-01-20T17:26:06.979Z,1.10
2019-01-20T17:28:43.911Z,1.10
2019-01-20T17:31:16.046Z,1.10
2019-01-20T17:33:53.111Z,1.10
2019-01-20T17:36:25.744Z,1.00
2019-01-20T17:39:01.613Z,0.90
2019-01-20T17:41:36.036Z,0.90
2019-01-20T17:44:08.018Z,0.90
2019-01-20T17:46:35.226Z,0.80
2019-01-20T17:49:02.495Z,0.70
2019-01-20T17:51:29.388Z,0.70
2019-01-20T17:53:58.393Z,0.70
2019-01-20T17:56:26.614Z,0.70
2019-01-20T17:58:53.661Z,0.60
2019-01-20T18:01:25.807Z,0.60
2019-01-20T18:03:57.193Z,0.70
2019-01-20T18:06:25.693Z,0.60
2019-01-20T18:08:52.221Z,0.60
2019-01-20T18:11:18.626Z,0.50
2019-01-20T18:13:52.191Z,0.70
2019-01-20T18:16:19.535Z,0.70
2019-01-20T18:18:46.756Z,0.60
2019-01-20T18:21:23.928Z,0.60
2019-01-20T18:23:53.049Z,0.60
2019-01-20T18:26:20.305Z,0.50
2019-01-20T18:28:46.295Z,0.50
2019-01-20T18:31:15.555Z,0.40
2019-01-20T18:33:41.720Z,0.40
2019-01-20T18:36:08.181Z,0.40
2019-01-20T18:38:34.180Z,0.40
2019-01-20T18:41:06.135Z,0.40
2019-01-20T18:43:33.477Z,0.30
2019-01-20T18:46:18.918Z,0.30
2019-01-20T18:48:48.842Z,0.30
2019-01-20T18:51:18.272Z,0.40
2019-01-20T18:53:44.397Z,0.30
2019-01-20T18:56:18.624Z,0.40
2019-01-20T18:58:55.892Z,0.40
2019-01-20T19:01:29.088Z,0.40
2019-01-20T19:04:13.383Z,0.30
2019-01-20T19:06:42.716Z,0.30
2019-01-20T19:09:16.930Z,0.20
2019-01-20T19:11:47.264Z,0.20
2019-01-20T19:14:16.871Z,0.20
2019-01-20T19:16:45.075Z,0.10
2019-01-20T19:19:16.411Z,0.10
2019-01-20T19:21:43.744Z,0.10
2019-01-20T19:24:14.830Z,0.10
2019-01-20T19:26:51.324Z,0.20
2019-01-20T19:29:18.635Z,0.10
2019-01-20T19:31:53.894Z,0.10
2019-01-20T19:34:23.026Z,0.10
2019-01-20T19:36:52.356Z,0.10
2019-01-20T19:39:18.401Z,0.00
2019-01-20T19:41:44.631Z,0.00
2019-01-20T19:44:10.765Z,0.00
2019-01-20T19:46:38.141Z,-0.10
2019-01-20T19:49:07.657Z,-0.10
2019-01-20T19:51:36.918Z,-0.10
2019-01-20T19:54:05.009Z,-0.10
2019-01-20T19:56:31.215Z,-0.10
2019-01-20T19:59:02.735Z,-0.10
2019-01-20T20:01:32.819Z,-0.20
2019-01-20T20:04:05.780Z,-0.20
2019-01-20T20:06:33.030Z,-0.20
2019-01-20T20:09:00.231Z,-0.30
2019-01-20T20:11:26.494Z,-0.30
2019-01-20T20:14:00.054Z,-0.30
2019-01-20T20:16:26.281Z,-0.20
2019-01-20T20:19:05.861Z,-0.20
2019-01-20T20:21:44.584Z,-0.20
2019-01-20T20:24:10.711Z,-0.30
2019-01-20T20:26:44.084Z,-0.20
2019-01-20T20:29:10.275Z,-0.10
2019-01-20T20:31:36.505Z,-0.20
2019-01-20T20:34:04.562Z,-0.20
2019-01-20T20:36:30.798Z,-0.30
2019-01-20T20:39:06.927Z,-0.30
2019-01-20T20:41:39.273Z,-0.30
2019-01-20T20:44:19.624Z,-0.40
2019-01-20T20:46:49.834Z,-0.40
2019-01-20T20:49:17.022Z,-0.50
2019-01-20T20:51:46.587Z,-0.50
2019-01-20T20:54:12.815Z,-0.50
2019-01-20T20:56:39.231Z,-0.50
2019-01-20T20:59:13.795Z,-0.50
2019-01-20T21:01:42.917Z,-0.60
2019-01-20T21:04:09.214Z,-0.60
2019-01-20T21:06:35.454Z,-0.70
2019-01-20T21:09:02.050Z,-0.60
2019-01-20T21:11:28.264Z,-0.60
2019-01-20T21:14:10.166Z,-0.70
2019-01-20T21:16:37.945Z,-0.70
2019-01-20T21:19:06.675Z,-0.70
2019-01-20T21:21:47.641Z,-0.70
2019-01-20T21:24:16.247Z,-0.70
2019-01-20T21:26:44.637Z,-0.70
2019-01-20T21:29:12.020Z,-0.80
2019-01-20T21:31:45.412Z,-0.80
2019-01-20T21:34:28.285Z,-0.80
2019-01-20T21:37:06.489Z,-0.80
2019-01-20T21:39:38.769Z,-0.90
2019-01-20T21:42:06.203Z,-0.80
2019-01-20T21:44:35.743Z,-0.90
2019-01-20T21:47:16.342Z,-0.90
2019-01-20T21:49:48.337Z,-0.90
2019-01-20T21:52:18.768Z,-1.00
2019-01-20T21:54:48.861Z,-1.00
2019-01-20T21:57:30.134Z,-1.00
2019-01-20T21:59:58.400Z,-1.00
2019-01-20T22:02:28.764Z,-1.00
2019-01-20T22:05:01.861Z,-1.00
2019-01-20T22:07:28.183Z,-1.10
2019-01-20T22:09:56.232Z,-1.10
2019-01-20T22:12:32.125Z,-1.10
2019-01-20T22:15:12.482Z,-1.30
2019-01-20T22:17:41.681Z,-1.10
2019-01-20T22:20:18.059Z,-1.20
2019-01-20T22:22:49.271Z,-1.20
2019-01-20T22:25:45.553Z,-1.30
2019-01-20T22:28:17.979Z,-1.30
2019-01-20T22:30:53.562Z,-1.30
2019-01-20T22:33:29.652Z,-1.30
2019-01-20T22:35:55.943Z,-1.40
2019-01-20T22:38:23.409Z,-1.40
2019-01-20T22:40:49.576Z,-1.40
2019-01-20T22:43:16.761Z,-1.50
2019-01-20T22:45:50.923Z,-1.50
2019-01-20T22:48:17.478Z,-1.50
2019-01-20T22:50:45.620Z,-1.50
2019-01-20T22:53:19.167Z,-1.50
2019-01-20T22:55:43.829Z,-1.40
2019-01-20T22:58:10.750Z,-1.40
2019-01-20T23:00:52.059Z,-1.40
2019-01-20T23:03:30.829Z,-1.40
2019-01-20T23:05:57.106Z,-1.40
2019-01-20T23:08:24.290Z,-1.40
2019-01-20T23:10:51.689Z,-1.40
2019-01-20T23:13:17.981Z,-1.50
2019-01-20T23:15:50.465Z,-1.50
2019-01-20T23:18:20.184Z,-1.60
2019-01-20T23:20:46.253Z,-1.60
2019-01-20T23:23:12.611Z,-1.60
2019-01-20T23:25:38.729Z,-1.60
2019-01-20T23:28:05.830Z,-1.60
2019-01-20T23:30:42.825Z,-1.60
2019-01-20T23:33:08.860Z,-1.70
2019-01-20T23:35:35.097Z,-1.70
2019-01-20T23:38:01.199Z,-1.70
2019-01-20T23:40:30.425Z,-1.70
2019-01-20T23:43:03.484Z,-1.70
2019-01-20T23:45:29.534Z,-1.60
2019-01-20T23:48:10.173Z,-1.70
2019-01-20T23:50:36.434Z,-1.80
2019-01-20T23:53:02.777Z,-1.80
2019-01-20T23:55:28.858Z,-1.90
2019-01-20T23:57:54.894Z,-1.90
